Darstellungsparameter: Aktuell verwendete Einstellungen:
Skalierung der Graphiken ... ?
xyx+y,   Skalierungsfaktor:      Skalierung: Modus: x, Faktor: 1
Darstellungszeitraum ... ?
Vom - - bis: - -   Zeitraum: 14.08.2013 - 14.08.2013
Min/Max/Avg-Anzeige ... ?
Zeige MMA aktuell
Zeige MMA Monat
Zeige MMA alles
Zeige --A aktuell
Zeige --A Monat
Zeige --A alles
Keine MMA-Anzeige
MMA:
Keine MMA-Graphiken
MMA-Basis: 14.08.2013 - 14.08.2013
Quicknavigation für Darstellung... ?
Tage:      1T, 2T, 3T, 5T -1T -2T -3T -5T +1T +2T +3T +5T
Wochen: 1W, 2W, 3W -1W -2W -3W +1W +2W +3W
Monate: 1M, 3M, 6M -1M -3M -6M +1M +3M +6M
Jahre:    1J, 3J, 5J, 10J -1J -3J -5J -10J +1J +3J +5J +10J
Nutze für die Darstellung ... ?
Originaldaten oder Mittelwerte auf ...
Stundenbasis Tagesbasis Wochenbasis
Monatsbasis Jahresbasis      Datenbasis: Original-Daten
Darstellen als:
Statistik (Auto) Statistik J:M      Darstellung:
Zur Graphik,    zurück zur Übersicht aller Sensoren.
 
Tabellarische Datenbersicht: ?
 
Sensor: Nr:Datum:Temp:Feuchte:Taupunkt:
Aussen-T/F 1 14-08-2013 00:00:00 12.7 C 90 % 11.1 C
2 14-08-2013 00:05:00 12.6 C 90 % 11 C
3 14-08-2013 00:10:00 12.4 C 91 % 10.97 C
4 14-08-2013 00:15:00 12.3 C 91 % 10.87 C
5 14-08-2013 00:20:00 12.3 C 91 % 10.87 C
6 14-08-2013 00:25:00 12.2 C 91 % 10.78 C
7 14-08-2013 00:30:00 12.2 C 91 % 10.78 C
8 14-08-2013 00:35:00 12.1 C 91 % 10.68 C
9 14-08-2013 00:40:00 12.1 C 92 % 10.84 C
10 14-08-2013 00:45:00 12 C 92 % 10.74 C
11 14-08-2013 00:50:00 12 C 92 % 10.74 C
12 14-08-2013 00:55:00 11.9 C 92 % 10.64 C
13 14-08-2013 01:00:00 11.9 C 92 % 10.64 C
14 14-08-2013 01:05:00 11.9 C 92 % 10.64 C
15 14-08-2013 01:10:00 11.9 C 92 % 10.64 C
16 14-08-2013 01:15:00 11.9 C 92 % 10.64 C
17 14-08-2013 01:20:00 11.9 C 92 % 10.64 C
18 14-08-2013 01:25:00 11.9 C 92 % 10.64 C
19 14-08-2013 01:30:00 11.8 C 92 % 10.54 C
20 14-08-2013 01:35:00 11.8 C 92 % 10.54 C
21 14-08-2013 01:40:00 11.7 C 92 % 10.44 C
22 14-08-2013 01:45:00 11.6 C 93 % 10.51 C
23 14-08-2013 01:50:00 11.6 C 93 % 10.51 C
24 14-08-2013 01:55:00 11.5 C 93 % 10.41 C
25 14-08-2013 02:00:00 11.4 C 93 % 10.31 C
Sensor: Nr:Datum:Temp:Feuchte:Taupunkt:
Aussen-T/F 26 14-08-2013 02:05:00 11.4 C 93 % 10.31 C
27 14-08-2013 02:10:00 11.3 C 93 % 10.21 C
28 14-08-2013 02:15:00 11.2 C 93 % 10.11 C
29 14-08-2013 02:20:00 11.3 C 94 % 10.37 C
30 14-08-2013 02:25:00 11.3 C 94 % 10.37 C
31 14-08-2013 02:30:00 11.3 C 94 % 10.37 C
32 14-08-2013 02:35:00 11.3 C 94 % 10.37 C
33 14-08-2013 02:40:00 11.2 C 93 % 10.11 C
34 14-08-2013 02:45:00 11.2 C 93 % 10.11 C
35 14-08-2013 02:50:00 11.1 C 93 % 10.01 C
36 14-08-2013 02:55:00 10.9 C 93 % 9.81 C
37 14-08-2013 03:00:00 10.9 C 94 % 9.97 C
38 14-08-2013 03:05:00 10.9 C 93 % 9.81 C
39 14-08-2013 03:10:00 10.8 C 93 % 9.71 C
40 14-08-2013 03:15:00 10.7 C 93 % 9.62 C
41 14-08-2013 03:20:00 10.7 C 94 % 9.77 C
42 14-08-2013 03:25:00 10.7 C 94 % 9.77 C
43 14-08-2013 03:30:00 10.6 C 94 % 9.68 C
44 14-08-2013 03:35:00 10.5 C 94 % 9.58 C
45 14-08-2013 03:40:00 10.4 C 93 % 9.32 C
46 14-08-2013 03:45:00 10.4 C 94 % 9.48 C
47 14-08-2013 03:50:00 10.3 C 94 % 9.38 C
48 14-08-2013 03:55:00 10.4 C 94 % 9.48 C
49 14-08-2013 04:00:00 10.3 C 94 % 9.38 C
50 14-08-2013 04:05:00 10.3 C 94 % 9.38 C
Sensor: Nr:Datum:Temp:Feuchte:Taupunkt:
Aussen-T/F 51 14-08-2013 04:10:00 10.2 C 94 % 9.28 C
52 14-08-2013 04:15:00 10.2 C 94 % 9.28 C
53 14-08-2013 04:20:00 10.1 C 94 % 9.18 C
54 14-08-2013 04:25:00 10 C 94 % 9.08 C
55 14-08-2013 04:30:00 10.1 C 95 % 9.34 C
56 14-08-2013 04:35:00 10 C 94 % 9.08 C
57 14-08-2013 04:40:00 9.9 C 94 % 8.98 C
58 14-08-2013 04:45:00 9.9 C 94 % 8.98 C
59 14-08-2013 04:50:00 9.8 C 94 % 8.88 C
60 14-08-2013 04:55:00 9.7 C 94 % 8.78 C
61 14-08-2013 05:00:00 9.7 C 94 % 8.78 C
62 14-08-2013 05:05:00 9.6 C 95 % 8.84 C
63 14-08-2013 05:10:00 9.6 C 94 % 8.68 C
64 14-08-2013 05:15:00 9.5 C 95 % 8.74 C
65 14-08-2013 05:20:00 9.5 C 95 % 8.74 C
66 14-08-2013 05:25:00 9.4 C 95 % 8.64 C
67 14-08-2013 05:30:00 9.4 C 95 % 8.64 C
68 14-08-2013 05:35:00 9.4 C 95 % 8.64 C
69 14-08-2013 05:40:00 9.3 C 95 % 8.54 C
70 14-08-2013 05:45:00 9.3 C 95 % 8.54 C
71 14-08-2013 05:50:00 9.2 C 95 % 8.44 C
72 14-08-2013 05:55:00 9.2 C 95 % 8.44 C
73 14-08-2013 06:00:00 9.2 C 95 % 8.44 C
74 14-08-2013 06:05:00 9.1 C 95 % 8.34 C
75 14-08-2013 06:10:00 9.1 C 95 % 8.34 C
Sensor: Nr:Datum:Temp:Feuchte:Taupunkt:
Aussen-T/F 76 14-08-2013 06:15:00 9 C 95 % 8.24 C
77 14-08-2013 06:20:00 8.9 C 95 % 8.14 C
78 14-08-2013 06:25:00 8.8 C 95 % 8.04 C
79 14-08-2013 06:30:00 8.8 C 95 % 8.04 C
80 14-08-2013 06:35:00 8.8 C 95 % 8.04 C
81 14-08-2013 06:40:00 8.7 C 95 % 7.94 C
82 14-08-2013 06:45:00 8.7 C 95 % 7.94 C
83 14-08-2013 06:50:00 8.7 C 96 % 8.1 C
84 14-08-2013 06:55:00 8.7 C 96 % 8.1 C
85 14-08-2013 07:00:00 8.8 C 96 % 8.2 C
86 14-08-2013 07:05:00 8.7 C 96 % 8.1 C
87 14-08-2013 07:10:00 8.6 C 96 % 8 C
88 14-08-2013 07:15:00 8.6 C 96 % 8 C
89 14-08-2013 07:20:00 8.6 C 96 % 8 C
90 14-08-2013 07:25:00 8.7 C 96 % 8.1 C
91 14-08-2013 07:30:00 8.7 C 96 % 8.1 C
92 14-08-2013 07:35:00 8.7 C 96 % 8.1 C
93 14-08-2013 07:40:00 8.7 C 96 % 8.1 C
94 14-08-2013 07:45:00 8.7 C 96 % 8.1 C
95 14-08-2013 07:50:00 8.8 C 96 % 8.2 C
96 14-08-2013 07:55:00 8.9 C 96 % 8.3 C
97 14-08-2013 08:00:00 9 C 96 % 8.4 C
98 14-08-2013 08:05:00 9 C 96 % 8.4 C
99 14-08-2013 08:10:00 9.1 C 96 % 8.5 C
100 14-08-2013 08:15:00 9.1 C 96 % 8.5 C
Sensor: Nr:Datum:Temp:Feuchte:Taupunkt:
Aussen-T/F 101 14-08-2013 08:20:00 9.2 C 96 % 8.6 C
102 14-08-2013 08:25:00 9.3 C 96 % 8.7 C
103 14-08-2013 08:30:00 9.4 C 97 % 8.95 C
104 14-08-2013 08:35:00 9.6 C 96 % 8.99 C
105 14-08-2013 08:40:00 9.7 C 97 % 9.25 C
106 14-08-2013 08:45:00 9.8 C 96 % 9.19 C
107 14-08-2013 08:50:00 9.9 C 96 % 9.29 C
108 14-08-2013 08:55:00 10 C 96 % 9.39 C
109 14-08-2013 09:00:00 10 C 96 % 9.39 C
110 14-08-2013 09:05:00 10.1 C 96 % 9.49 C
111 14-08-2013 09:10:00 10.2 C 96 % 9.59 C
112 14-08-2013 09:15:00 10.4 C 96 % 9.79 C
113 14-08-2013 09:20:00 10.5 C 96 % 9.89 C
114 14-08-2013 09:25:00 10.6 C 96 % 9.99 C
115 14-08-2013 09:30:00 10.7 C 96 % 10.09 C
116 14-08-2013 09:35:00 10.8 C 96 % 10.19 C
117 14-08-2013 09:40:00 11 C 96 % 10.39 C
118 14-08-2013 09:45:00 11.2 C 96 % 10.59 C
119 14-08-2013 09:50:00 11.4 C 96 % 10.79 C
120 14-08-2013 09:55:00 11.7 C 96 % 11.08 C
121 14-08-2013 10:00:00 11.8 C 96 % 11.18 C
122 14-08-2013 10:05:00 12 C 95 % 11.22 C
123 14-08-2013 10:10:00 12.2 C 95 % 11.42 C
124 14-08-2013 10:15:00 12.4 C 93 % 11.3 C
125 14-08-2013 10:20:00 12.7 C 92 % 11.43 C
Sensor: Nr:Datum:Temp:Feuchte:Taupunkt:
Aussen-T/F 126 14-08-2013 10:25:00 12.9 C 92 % 11.63 C
127 14-08-2013 10:30:00 13 C 91 % 11.57 C
128 14-08-2013 10:35:00 13.2 C 90 % 11.6 C
129 14-08-2013 10:40:00 13.3 C 89 % 11.53 C
130 14-08-2013 10:45:00 13.4 C 89 % 11.63 C
131 14-08-2013 10:50:00 13.7 C 88 % 11.75 C
132 14-08-2013 10:55:00 14.4 C 82 % 11.37 C
133 14-08-2013 11:00:00 14.5 C 85 % 12.01 C
134 14-08-2013 11:05:00 14.9 C 82 % 11.86 C
135 14-08-2013 11:10:00 15.1 C 79 % 11.49 C
136 14-08-2013 11:15:00 15.5 C 78 % 11.68 C
137 14-08-2013 11:20:00 15.9 C 78 % 12.07 C
138 14-08-2013 11:25:00 16.5 C 74 % 11.85 C
139 14-08-2013 11:30:00 16.8 C 73 % 11.94 C
140 14-08-2013 11:35:00 17.2 C 67 % 11.02 C
141 14-08-2013 11:40:00 17.4 C 69 % 11.66 C
142 14-08-2013 11:45:00 17.4 C 70 % 11.88 C
143 14-08-2013 11:50:00 17.4 C 68 % 11.44 C
144 14-08-2013 11:55:00 17.6 C 64 % 10.72 C
145 14-08-2013 12:00:00 17.8 C 64 % 10.9 C
146 14-08-2013 12:05:00 18.3 C 62 % 10.9 C
147 14-08-2013 12:10:00 18.4 C 66 % 11.94 C
148 14-08-2013 12:15:00 18.8 C 64 % 11.85 C
149 14-08-2013 12:20:00 18.9 C 61 % 11.22 C
150 14-08-2013 12:25:00 18.9 C 62 % 11.47 C
Sensor: Nr:Datum:Temp:Feuchte:Taupunkt:
Aussen-T/F 151 14-08-2013 12:30:00 19.2 C 57 % 10.48 C
152 14-08-2013 12:35:00 19.4 C 58 % 10.93 C
153 14-08-2013 12:40:00 19.8 C 59 % 11.56 C
154 14-08-2013 12:45:00 19.5 C 59 % 11.28 C
155 14-08-2013 12:50:00 19.7 C 58 % 11.21 C
156 14-08-2013 12:55:00 19.9 C 57 % 11.14 C
157 14-08-2013 13:00:00 20.1 C 62 % 12.6 C
158 14-08-2013 13:05:00 19.9 C 56 % 10.87 C
159 14-08-2013 13:10:00 19.9 C 60 % 11.91 C
160 14-08-2013 13:15:00 20.4 C 58 % 11.86 C
161 14-08-2013 13:20:00 20.7 C 58 % 12.15 C
162 14-08-2013 13:25:00 20.9 C 61 % 13.1 C
163 14-08-2013 13:30:00 20.9 C 56 % 11.8 C
164 14-08-2013 13:35:00 20.2 C 55 % 10.88 C
165 14-08-2013 13:40:00 19.8 C 60 % 11.82 C
166 14-08-2013 13:45:00 20.1 C 54 % 10.51 C
167 14-08-2013 13:50:00 19.8 C 58 % 11.3 C
168 14-08-2013 13:55:00 19.2 C 69 % 13.38 C
169 14-08-2013 14:00:00 18.1 C 74 % 13.4 C
170 14-08-2013 14:05:00 18.4 C 65 % 11.71 C
171 14-08-2013 14:10:00 20.6 C 56 % 11.52 C
172 14-08-2013 14:15:00 21 C 46 % 8.95 C
173 14-08-2013 14:20:00 21.3 C 48 % 9.85 C
174 14-08-2013 14:25:00 21.3 C 50 % 10.46 C
175 14-08-2013 14:30:00 21.3 C 48 % 9.85 C
Sensor: Nr:Datum:Temp:Feuchte:Taupunkt:
Aussen-T/F 176 14-08-2013 14:35:00 21.6 C 46 % 9.49 C
177 14-08-2013 14:40:00 21.3 C 44 % 8.56 C
178 14-08-2013 14:45:00 21.9 C 47 % 10.09 C
179 14-08-2013 14:50:00 21.9 C 50 % 11.01 C
180 14-08-2013 14:55:00 22.2 C 48 % 10.67 C
181 14-08-2013 15:00:00 21.8 C 46 % 9.67 C
182 14-08-2013 15:05:00 21.8 C 47 % 9.99 C
183 14-08-2013 15:10:00 22.2 C 45 % 9.71 C
184 14-08-2013 15:15:00 22 C 45 % 9.53 C
185 14-08-2013 15:20:00 21.6 C 44 % 8.83 C
186 14-08-2013 15:25:00 21 C 58 % 12.43 C
187 14-08-2013 15:30:00 20.6 C 52 % 10.41 C
188 14-08-2013 15:35:00 19.6 C 68 % 13.54 C
189 14-08-2013 15:40:00 18.8 C 68 % 12.77 C
190 14-08-2013 15:45:00 18.3 C 76 % 14 C
191 14-08-2013 15:50:00 17.9 C 76 % 13.61 C
192 14-08-2013 15:55:00 18 C 78 % 14.11 C
193 14-08-2013 16:00:00 18.8 C 74 % 14.07 C
194 14-08-2013 16:05:00 19.6 C 71 % 14.2 C
195 14-08-2013 16:10:00 20.5 C 51 % 10.02 C
196 14-08-2013 16:15:00 21.5 C 56 % 12.36 C
197 14-08-2013 16:20:00 22.6 C 44 % 9.74 C
198 14-08-2013 16:25:00 23.1 C 43 % 9.85 C
199 14-08-2013 16:30:00 22.5 C 52 % 12.16 C
200 14-08-2013 16:35:00 21.1 C 60 % 13.04 C
Sensor: Nr:Datum:Temp:Feuchte:Taupunkt:
Aussen-T/F 201 14-08-2013 16:40:00 19.8 C 68 % 13.73 C
202 14-08-2013 16:45:00 19 C 69 % 13.19 C
203 14-08-2013 16:50:00 20.1 C 67 % 13.78 C
204 14-08-2013 16:55:00 21.6 C 46 % 9.49 C
205 14-08-2013 17:00:00 22 C 43 % 8.85 C
206 14-08-2013 17:05:00 21.5 C 52 % 11.24 C
207 14-08-2013 17:10:00 20.3 C 64 % 13.27 C
208 14-08-2013 17:15:00 19.3 C 71 % 13.91 C
209 14-08-2013 17:20:00 18.9 C 72 % 13.74 C
210 14-08-2013 17:25:00 18.6 C 72 % 13.46 C
211 14-08-2013 17:30:00 18.2 C 75 % 13.7 C
212 14-08-2013 17:35:00 17.9 C 78 % 14.01 C
213 14-08-2013 17:40:00 17.7 C 81 % 14.4 C
214 14-08-2013 17:45:00 17.4 C 80 % 13.92 C
215 14-08-2013 17:50:00 17.2 C 81 % 13.91 C
216 14-08-2013 17:55:00 16.9 C 81 % 13.62 C
217 14-08-2013 18:00:00 16.7 C 80 % 13.23 C
218 14-08-2013 18:05:00 16.7 C 80 % 13.23 C
219 14-08-2013 18:10:00 16.6 C 77 % 12.55 C
220 14-08-2013 18:15:00 16.5 C 78 % 12.65 C
221 14-08-2013 18:20:00 16.4 C 80 % 12.94 C
222 14-08-2013 18:25:00 16.4 C 81 % 13.13 C
223 14-08-2013 18:30:00 16.4 C 81 % 13.13 C
224 14-08-2013 18:35:00 16.4 C 82 % 13.32 C
225 14-08-2013 18:40:00 16.4 C 83 % 13.51 C
Sensor: Nr:Datum:Temp:Feuchte:Taupunkt:
Aussen-T/F 226 14-08-2013 18:45:00 16.4 C 83 % 13.51 C
227 14-08-2013 18:50:00 16.5 C 82 % 13.42 C
228 14-08-2013 18:55:00 16.5 C 83 % 13.6 C
229 14-08-2013 19:00:00 16.5 C 82 % 13.42 C
230 14-08-2013 19:05:00 16.5 C 83 % 13.6 C
231 14-08-2013 19:10:00 16.5 C 81 % 13.23 C
232 14-08-2013 19:15:00 16.4 C 81 % 13.13 C
233 14-08-2013 19:20:00 16.4 C 81 % 13.13 C
234 14-08-2013 19:25:00 16.3 C 81 % 13.04 C
235 14-08-2013 19:30:00 16.3 C 78 % 12.46 C
236 14-08-2013 19:35:00 16.3 C 79 % 12.65 C
237 14-08-2013 19:40:00 16.3 C 79 % 12.65 C
238 14-08-2013 19:45:00 16.3 C 79 % 12.65 C
239 14-08-2013 19:50:00 16.3 C 80 % 12.85 C
240 14-08-2013 19:55:00 16.3 C 79 % 12.65 C
241 14-08-2013 20:00:00 16.2 C 80 % 12.75 C
242 14-08-2013 20:05:00 16.3 C 81 % 13.04 C
243 14-08-2013 20:10:00 16.3 C 79 % 12.65 C
244 14-08-2013 20:15:00 16.2 C 79 % 12.56 C
245 14-08-2013 20:20:00 16.2 C 79 % 12.56 C
246 14-08-2013 20:25:00 16.1 C 81 % 12.84 C
247 14-08-2013 20:30:00 15.9 C 80 % 12.46 C
248 14-08-2013 20:35:00 15.9 C 80 % 12.46 C
249 14-08-2013 20:40:00 15.8 C 81 % 12.55 C
250 14-08-2013 20:45:00 15.8 C 81 % 12.55 C
Sensor: Nr:Datum:Temp:Feuchte:Taupunkt:
Aussen-T/F 251 14-08-2013 20:50:00 15.8 C 80 % 12.36 C
252 14-08-2013 20:55:00 15.8 C 80 % 12.36 C
253 14-08-2013 21:00:00 15.8 C 81 % 12.55 C
254 14-08-2013 21:05:00 15.8 C 79 % 12.17 C
255 14-08-2013 21:10:00 15.8 C 80 % 12.36 C
256 14-08-2013 21:15:00 15.9 C 80 % 12.46 C
257 14-08-2013 21:20:00 16 C 79 % 12.36 C
258 14-08-2013 21:25:00 16 C 80 % 12.55 C
259 14-08-2013 21:30:00 16.2 C 78 % 12.36 C
260 14-08-2013 21:35:00 16.6 C 73 % 11.74 C
261 14-08-2013 21:40:00 16.9 C 76 % 12.65 C
262 14-08-2013 21:45:00 16.7 C 78 % 12.85 C
263 14-08-2013 21:50:00 16.3 C 81 % 13.04 C
264 14-08-2013 21:55:00 15.9 C 80 % 12.46 C
265 14-08-2013 22:00:00 15.7 C 83 % 12.82 C
266 14-08-2013 22:05:00 15.4 C 83 % 12.53 C
267 14-08-2013 22:10:00 15.2 C 83 % 12.33 C
268 14-08-2013 22:15:00 15.1 C 85 % 12.6 C
269 14-08-2013 22:20:00 15 C 85 % 12.5 C
270 14-08-2013 22:25:00 14.9 C 86 % 12.58 C
271 14-08-2013 22:30:00 14.9 C 85 % 12.4 C
272 14-08-2013 22:35:00 15 C 85 % 12.5 C
273 14-08-2013 22:40:00 15 C 84 % 12.32 C
274 14-08-2013 22:45:00 15.1 C 84 % 12.42 C
275 14-08-2013 22:50:00 15.1 C 86 % 12.78 C
Sensor: Nr:Datum:Temp:Feuchte:Taupunkt:
Aussen-T/F 276 14-08-2013 22:55:00 15.1 C 85 % 12.6 C
277 14-08-2013 23:00:00 15 C 85 % 12.5 C
278 14-08-2013 23:05:00 14.9 C 86 % 12.58 C
279 14-08-2013 23:10:00 14.8 C 86 % 12.48 C
280 14-08-2013 23:15:00 14.7 C 86 % 12.38 C
281 14-08-2013 23:20:00 14.6 C 86 % 12.29 C
282 14-08-2013 23:25:00 14.4 C 87 % 12.27 C
283 14-08-2013 23:30:00 14.3 C 86 % 11.99 C
284 14-08-2013 23:35:00 14.2 C 87 % 12.07 C
285 14-08-2013 23:40:00 14.1 C 87 % 11.97 C
286 14-08-2013 23:45:00 13.9 C 87 % 11.77 C
287 14-08-2013 23:50:00 13.8 C 87 % 11.68 C
288 14-08-2013 23:55:00 13.6 C 87 % 11.48 C

Legende:
   Min
   Max


Maximal/Minimal-Werte vom 14.08.2013 - 14.08.2013

Sensor Min Max Avg
Temp
(Aussen-T/F)
8.6 °C
14-08-2013  07:10:00
23.1 °C
14-08-2013  16:25:00
14.46 °C
Feuchte
(Aussen-T/F)
43 %
14-08-2013  16:25:00
97 %
14-08-2013  08:30:00
81.57 %
Taupunkt
(Aussen-T/F)
7.94 C
14-08-2013  06:40:00
14.4 C
14-08-2013  17:40:00
10.94 C

Die Daten stammen von einer Davis Vantage Pro 2 Wetter-Station und werden unter Linux mit der Software wview2wettercgi und aufbereitet. Alle Angaben erfolgen ohne Gewähr für ihre Vollständigkeit oder Richtigkeit.
Kontakt: Rainer Krienke krienke@uni-koblenz.de . Meine Webseiten an der Uni Koblenz oder privat.
Version: $Revision: 0.78 $